sensor_id;sensor_type;location;lat;lon;timestamp;temperature;humidity
55203;DHT22;41077;52.956;6.796;2022-12-29T00:02:00;10.50;99.90
55203;DHT22;41077;52.956;6.796;2022-12-29T00:04:25;10.50;99.90
55203;DHT22;41077;52.956;6.796;2022-12-29T00:06:52;10.50;99.90
55203;DHT22;41077;52.956;6.796;2022-12-29T00:09:18;10.50;99.90
55203;DHT22;41077;52.956;6.796;2022-12-29T00:11:44;10.50;99.90
55203;DHT22;41077;52.956;6.796;2022-12-29T00:14:10;10.60;99.90
55203;DHT22;41077;52.956;6.796;2022-12-29T00:16:55;10.50;99.90
55203;DHT22;41077;52.956;6.796;2022-12-29T00:19:21;10.50;99.90
55203;DHT22;41077;52.956;6.796;2022-12-29T00:22:05;10.50;99.90
55203;DHT22;41077;52.956;6.796;2022-12-29T00:24:49;10.60;99.90
55203;DHT22;41077;52.956;6.796;2022-12-29T00:27:34;10.50;99.90
55203;DHT22;41077;52.956;6.796;2022-12-29T00:30:21;10.50;99.90
55203;DHT22;41077;52.956;6.796;2022-12-29T00:33:51;10.40;99.90
55203;DHT22;41077;52.956;6.796;2022-12-29T00:36:31;10.40;99.90
55203;DHT22;41077;52.956;6.796;2022-12-29T00:39:01;10.40;99.90
55203;DHT22;41077;52.956;6.796;2022-12-29T00:41:47;10.50;99.90
55203;DHT22;41077;52.956;6.796;2022-12-29T00:44:32;10.60;99.90
55203;DHT22;41077;52.956;6.796;2022-12-29T00:46:57;10.60;99.90
55203;DHT22;41077;52.956;6.796;2022-12-29T00:49:27;10.60;99.90
55203;DHT22;41077;52.956;6.796;2022-12-29T00:54:27;10.60;99.90
55203;DHT22;41077;52.956;6.796;2022-12-29T00:56:53;10.50;99.90
55203;DHT22;41077;52.956;6.796;2022-12-29T00:59:19;10.60;99.90
55203;DHT22;41077;52.956;6.796;2022-12-29T01:01:46;10.70;99.90
55203;DHT22;41077;52.956;6.796;2022-12-29T01:04:12;10.70;99.90
55203;DHT22;41077;52.956;6.796;2022-12-29T01:06:39;10.70;99.90
55203;DHT22;41077;52.956;6.796;2022-12-29T01:09:06;10.70;99.90
55203;DHT22;41077;52.956;6.796;2022-12-29T01:11:51;10.70;99.90
55203;DHT22;41077;52.956;6.796;2022-12-29T01:14:17;10.70;99.90
55203;DHT22;41077;52.956;6.796;2022-12-29T01:16:44;10.70;99.90
55203;DHT22;41077;52.956;6.796;2022-12-29T01:19:09;10.70;99.90
55203;DHT22;41077;52.956;6.796;2022-12-29T01:21:35;10.70;99.90
55203;DHT22;41077;52.956;6.796;2022-12-29T01:24:01;10.80;99.90
55203;DHT22;41077;52.956;6.796;2022-12-29T01:26:27;10.80;99.90
55203;DHT22;41077;52.956;6.796;2022-12-29T01:28:53;10.80;99.90
55203;DHT22;41077;52.956;6.796;2022-12-29T01:31:18;10.80;99.90
55203;DHT22;41077;52.956;6.796;2022-12-29T01:33:44;10.80;99.90
55203;DHT22;41077;52.956;6.796;2022-12-29T01:36:14;10.80;99.90
55203;DHT22;41077;52.956;6.796;2022-12-29T01:38:40;10.80;99.90
55203;DHT22;41077;52.956;6.796;2022-12-29T01:41:08;10.70;99.90
55203;DHT22;41077;52.956;6.796;2022-12-29T01:43:49;10.80;99.90
55203;DHT22;41077;52.956;6.796;2022-12-29T01:46:36;10.80;99.90
55203;DHT22;41077;52.956;6.796;2022-12-29T01:49:18;10.80;99.90
55203;DHT22;41077;52.956;6.796;2022-12-29T01:54:28;10.90;99.90
55203;DHT22;41077;52.956;6.796;2022-12-29T01:56:57;10.90;99.90
55203;DHT22;41077;52.956;6.796;2022-12-29T01:59:28;11.00;99.90
55203;DHT22;41077;52.956;6.796;2022-12-29T02:01:55;11.00;99.90
55203;DHT22;41077;52.956;6.796;2022-12-29T02:04:23;11.00;99.90
55203;DHT22;41077;52.956;6.796;2022-12-29T02:06:54;11.00;99.90
55203;DHT22;41077;52.956;6.796;2022-12-29T02:09:21;10.90;99.90
55203;DHT22;41077;52.956;6.796;2022-12-29T02:11:48;10.90;99.90
55203;DHT22;41077;52.956;6.796;2022-12-29T02:14:14;10.90;99.90
55203;DHT22;41077;52.956;6.796;2022-12-29T02:22:34;11.20;99.90
55203;DHT22;41077;52.956;6.796;2022-12-29T02:25:21;11.20;99.90
55203;DHT22;41077;52.956;6.796;2022-12-29T02:30:50;11.30;99.90
55203;DHT22;41077;52.956;6.796;2022-12-29T02:39:38;11.30;99.90
55203;DHT22;41077;52.956;6.796;2022-12-29T02:42:09;11.30;99.90
55203;DHT22;41077;52.956;6.796;2022-12-29T02:45:12;11.30;99.90
55203;DHT22;41077;52.956;6.796;2022-12-29T02:47:43;11.30;99.90
55203;DHT22;41077;52.956;6.796;2022-12-29T02:52:48;11.20;99.90
55203;DHT22;41077;52.956;6.796;2022-12-29T02:55:15;11.10;99.90
55203;DHT22;41077;52.956;6.796;2022-12-29T02:57:41;11.10;99.90
55203;DHT22;41077;52.956;6.796;2022-12-29T03:00:08;11.10;99.90
55203;DHT22;41077;52.956;6.796;2022-12-29T03:08:31;11.20;99.90
55203;DHT22;41077;52.956;6.796;2022-12-29T03:11:03;11.10;99.90
55203;DHT22;41077;52.956;6.796;2022-12-29T03:13:49;11.00;99.90
55203;DHT22;41077;52.956;6.796;2022-12-29T03:16:43;11.10;99.90
55203;DHT22;41077;52.956;6.796;2022-12-29T03:19:21;11.00;99.90
55203;DHT22;41077;52.956;6.796;2022-12-29T03:21:56;10.90;99.90
55203;DHT22;41077;52.956;6.796;2022-12-29T03:24:44;10.90;99.90
55203;DHT22;41077;52.956;6.796;2022-12-29T03:27:16;10.90;99.90
55203;DHT22;41077;52.956;6.796;2022-12-29T03:29:47;11.00;99.90
55203;DHT22;41077;52.956;6.796;2022-12-29T03:32:19;11.00;99.90
55203;DHT22;41077;52.956;6.796;2022-12-29T03:34:47;11.00;99.90
55203;DHT22;41077;52.956;6.796;2022-12-29T03:37:16;11.00;99.90
55203;DHT22;41077;52.956;6.796;2022-12-29T03:39:44;11.00;99.90
55203;DHT22;41077;52.956;6.796;2022-12-29T03:42:31;11.10;99.90
55203;DHT22;41077;52.956;6.796;2022-12-29T03:44:57;11.10;99.90
55203;DHT22;41077;52.956;6.796;2022-12-29T03:47:24;11.20;99.90
55203;DHT22;41077;52.956;6.796;2022-12-29T03:49:50;11.10;99.90
55203;DHT22;41077;52.956;6.796;2022-12-29T03:52:16;11.00;99.90
55203;DHT22;41077;52.956;6.796;2022-12-29T03:54:42;11.00;99.90
55203;DHT22;41077;52.956;6.796;2022-12-29T03:57:09;11.00;99.90
55203;DHT22;41077;52.956;6.796;2022-12-29T03:59:34;11.10;99.90
55203;DHT22;41077;52.956;6.796;2022-12-29T04:02:00;11.10;99.90
55203;DHT22;41077;52.956;6.796;2022-12-29T04:04:26;11.10;99.90
55203;DHT22;41077;52.956;6.796;2022-12-29T04:06:51;11.00;99.90
55203;DHT22;41077;52.956;6.796;2022-12-29T04:09:17;11.00;99.90
55203;DHT22;41077;52.956;6.796;2022-12-29T04:11:43;11.10;99.90
55203;DHT22;41077;52.956;6.796;2022-12-29T04:14:08;11.10;99.90
55203;DHT22;41077;52.956;6.796;2022-12-29T04:16:34;11.10;99.90
55203;DHT22;41077;52.956;6.796;2022-12-29T04:19:02;11.10;99.90
55203;DHT22;41077;52.956;6.796;2022-12-29T04:21:27;10.90;99.90
55203;DHT22;41077;52.956;6.796;2022-12-29T04:23:53;10.90;99.90
55203;DHT22;41077;52.956;6.796;2022-12-29T04:26:19;11.00;99.90
55203;DHT22;41077;52.956;6.796;2022-12-29T04:28:44;10.90;99.90
55203;DHT22;41077;52.956;6.796;2022-12-29T04:31:10;10.90;99.90
55203;DHT22;41077;52.956;6.796;2022-12-29T04:33:36;10.80;99.90
55203;DHT22;41077;52.956;6.796;2022-12-29T04:36:01;10.80;99.90
55203;DHT22;41077;52.956;6.796;2022-12-29T04:38:27;10.70;99.90
55203;DHT22;41077;52.956;6.796;2022-12-29T04:48:14;10.60;99.90
55203;DHT22;41077;52.956;6.796;2022-12-29T04:50:40;10.30;99.90
55203;DHT22;41077;52.956;6.796;2022-12-29T04:53:06;10.20;99.90
55203;DHT22;41077;52.956;6.796;2022-12-29T04:55:32;10.20;99.90
55203;DHT22;41077;52.956;6.796;2022-12-29T04:57:57;10.10;99.90
55203;DHT22;41077;52.956;6.796;2022-12-29T05:00:23;10.20;99.90
55203;DHT22;41077;52.956;6.796;2022-12-29T05:02:49;10.20;99.90
55203;DHT22;41077;52.956;6.796;2022-12-29T05:05:15;10.40;99.90
55203;DHT22;41077;52.956;6.796;2022-12-29T05:07:41;10.40;99.90
55203;DHT22;41077;52.956;6.796;2022-12-29T05:10:08;10.50;99.90
55203;DHT22;41077;52.956;6.796;2022-12-29T05:12:35;10.50;99.90
55203;DHT22;41077;52.956;6.796;2022-12-29T05:15:01;10.40;99.90
55203;DHT22;41077;52.956;6.796;2022-12-29T05:17:28;10.40;99.90
55203;DHT22;41077;52.956;6.796;2022-12-29T05:19:54;10.40;99.90
55203;DHT22;41077;52.956;6.796;2022-12-29T05:22:19;10.40;99.90
55203;DHT22;41077;52.956;6.796;2022-12-29T05:24:45;10.40;99.90
55203;DHT22;41077;52.956;6.796;2022-12-29T05:27:11;10.40;99.90
55203;DHT22;41077;52.956;6.796;2022-12-29T05:29:37;10.40;99.90
55203;DHT22;41077;52.956;6.796;2022-12-29T05:32:02;10.40;99.90
55203;DHT22;41077;52.956;6.796;2022-12-29T05:34:28;10.40;99.90
55203;DHT22;41077;52.956;6.796;2022-12-29T05:36:54;10.40;99.90
55203;DHT22;41077;52.956;6.796;2022-12-29T05:39:19;10.40;99.90
55203;DHT22;41077;52.956;6.796;2022-12-29T05:41:45;10.50;99.90
55203;DHT22;41077;52.956;6.796;2022-12-29T05:44:11;10.50;99.90
55203;DHT22;41077;52.956;6.796;2022-12-29T05:46:37;10.40;99.90
55203;DHT22;41077;52.956;6.796;2022-12-29T05:49:04;10.40;99.90
55203;DHT22;41077;52.956;6.796;2022-12-29T05:51:30;10.30;99.90
55203;DHT22;41077;52.956;6.796;2022-12-29T05:53:55;10.40;99.90
55203;DHT22;41077;52.956;6.796;2022-12-29T05:56:21;10.40;99.90
55203;DHT22;41077;52.956;6.796;2022-12-29T05:58:47;10.50;99.90
55203;DHT22;41077;52.956;6.796;2022-12-29T06:01:12;10.40;99.90
55203;DHT22;41077;52.956;6.796;2022-12-29T06:03:38;10.40;99.90
55203;DHT22;41077;52.956;6.796;2022-12-29T06:06:04;10.40;99.90
55203;DHT22;41077;52.956;6.796;2022-12-29T06:08:30;10.50;99.90
55203;DHT22;41077;52.956;6.796;2022-12-29T06:10:56;10.50;99.90
55203;DHT22;41077;52.956;6.796;2022-12-29T06:13:21;10.50;99.90
55203;DHT22;41077;52.956;6.796;2022-12-29T06:15:50;10.50;99.90
55203;DHT22;41077;52.956;6.796;2022-12-29T06:18:15;10.50;99.90
55203;DHT22;41077;52.956;6.796;2022-12-29T06:20:41;10.60;99.90
55203;DHT22;41077;52.956;6.796;2022-12-29T06:23:07;10.60;99.90
55203;DHT22;41077;52.956;6.796;2022-12-29T06:25:33;10.70;99.90
55203;DHT22;41077;52.956;6.796;2022-12-29T06:28:01;10.80;99.90
55203;DHT22;41077;52.956;6.796;2022-12-29T06:30:27;10.60;99.90
55203;DHT22;41077;52.956;6.796;2022-12-29T06:32:53;10.60;99.90
55203;DHT22;41077;52.956;6.796;2022-12-29T06:35:20;10.70;99.90
55203;DHT22;41077;52.956;6.796;2022-12-29T06:37:48;10.70;99.90
55203;DHT22;41077;52.956;6.796;2022-12-29T06:40:13;10.60;99.90
55203;DHT22;41077;52.956;6.796;2022-12-29T06:42:39;10.60;99.90
55203;DHT22;41077;52.956;6.796;2022-12-29T06:45:05;10.60;99.90
55203;DHT22;41077;52.956;6.796;2022-12-29T06:47:33;10.70;99.90
55203;DHT22;41077;52.956;6.796;2022-12-29T06:49:59;10.70;99.90
55203;DHT22;41077;52.956;6.796;2022-12-29T06:52:25;10.70;99.90
55203;DHT22;41077;52.956;6.796;2022-12-29T06:54:51;10.60;99.90
55203;DHT22;41077;52.956;6.796;2022-12-29T06:57:16;10.60;99.90
55203;DHT22;41077;52.956;6.796;2022-12-29T06:59:42;10.70;99.90
55203;DHT22;41077;52.956;6.796;2022-12-29T07:02:10;10.70;99.90
55203;DHT22;41077;52.956;6.796;2022-12-29T07:04:36;10.70;99.90
55203;DHT22;41077;52.956;6.796;2022-12-29T07:07:01;10.70;99.90
55203;DHT22;41077;52.956;6.796;2022-12-29T07:09:27;10.60;99.90
55203;DHT22;41077;52.956;6.796;2022-12-29T07:11:53;10.70;99.90
55203;DHT22;41077;52.956;6.796;2022-12-29T07:14:18;10.70;99.90
55203;DHT22;41077;52.956;6.796;2022-12-29T07:16:44;10.70;99.90
55203;DHT22;41077;52.956;6.796;2022-12-29T07:19:10;10.70;99.90
55203;DHT22;41077;52.956;6.796;2022-12-29T07:21:35;10.60;99.90
55203;DHT22;41077;52.956;6.796;2022-12-29T07:24:01;10.70;99.90
55203;DHT22;41077;52.956;6.796;2022-12-29T07:26:27;10.70;99.90
55203;DHT22;41077;52.956;6.796;2022-12-29T07:28:52;10.60;99.90
55203;DHT22;41077;52.956;6.796;2022-12-29T07:31:20;10.60;99.90
55203;DHT22;41077;52.956;6.796;2022-12-29T07:33:46;10.50;99.90
55203;DHT22;41077;52.956;6.796;2022-12-29T07:36:13;10.60;99.90
55203;DHT22;41077;52.956;6.796;2022-12-29T07:38:40;10.60;99.90
55203;DHT22;41077;52.956;6.796;2022-12-29T07:41:06;10.50;99.90
55203;DHT22;41077;52.956;6.796;2022-12-29T07:43:31;10.60;99.90
55203;DHT22;41077;52.956;6.796;2022-12-29T07:45:57;10.60;99.90
55203;DHT22;41077;52.956;6.796;2022-12-29T07:48:23;10.60;99.90
55203;DHT22;41077;52.956;6.796;2022-12-29T07:50:48;10.70;99.90
55203;DHT22;41077;52.956;6.796;2022-12-29T07:53:15;10.60;99.90
55203;DHT22;41077;52.956;6.796;2022-12-29T07:55:41;10.60;99.90
55203;DHT22;41077;52.956;6.796;2022-12-29T07:58:06;10.60;99.90
55203;DHT22;41077;52.956;6.796;2022-12-29T08:00:32;10.60;99.90
55203;DHT22;41077;52.956;6.796;2022-12-29T08:02:58;10.60;99.90
55203;DHT22;41077;52.956;6.796;2022-12-29T08:05:24;10.60;99.90
55203;DHT22;41077;52.956;6.796;2022-12-29T08:07:50;10.50;99.90
55203;DHT22;41077;52.956;6.796;2022-12-29T08:10:16;10.60;99.90
55203;DHT22;41077;52.956;6.796;2022-12-29T08:12:42;10.50;99.90
55203;DHT22;41077;52.956;6.796;2022-12-29T08:15:10;10.50;99.90
55203;DHT22;41077;52.956;6.796;2022-12-29T08:17:36;10.50;99.90
55203;DHT22;41077;52.956;6.796;2022-12-29T08:20:02;10.60;99.90
55203;DHT22;41077;52.956;6.796;2022-12-29T08:22:28;10.50;99.90
55203;DHT22;41077;52.956;6.796;2022-12-29T08:24:53;10.60;99.90
55203;DHT22;41077;52.956;6.796;2022-12-29T08:27:19;10.40;99.90
55203;DHT22;41077;52.956;6.796;2022-12-29T08:29:45;10.40;99.90
55203;DHT22;41077;52.956;6.796;2022-12-29T08:32:11;10.50;99.90
55203;DHT22;41077;52.956;6.796;2022-12-29T08:34:37;10.50;99.90
55203;DHT22;41077;52.956;6.796;2022-12-29T08:37:03;10.50;99.90
55203;DHT22;41077;52.956;6.796;2022-12-29T08:39:29;10.50;99.90
55203;DHT22;41077;52.956;6.796;2022-12-29T08:41:54;10.50;99.90
55203;DHT22;41077;52.956;6.796;2022-12-29T08:44:20;10.60;99.90
55203;DHT22;41077;52.956;6.796;2022-12-29T08:46:46;10.60;99.90
55203;DHT22;41077;52.956;6.796;2022-12-29T08:49:12;10.70;99.90
55203;DHT22;41077;52.956;6.796;2022-12-29T08:51:37;10.60;99.90
55203;DHT22;41077;52.956;6.796;2022-12-29T08:54:03;10.70;99.90
55203;DHT22;41077;52.956;6.796;2022-12-29T08:56:29;10.60;99.90
55203;DHT22;41077;52.956;6.796;2022-12-29T08:58:54;10.60;99.90
55203;DHT22;41077;52.956;6.796;2022-12-29T09:01:20;10.60;99.90
55203;DHT22;41077;52.956;6.796;2022-12-29T09:03:46;10.60;99.90
55203;DHT22;41077;52.956;6.796;2022-12-29T09:06:13;10.60;99.90
55203;DHT22;41077;52.956;6.796;2022-12-29T09:08:40;10.70;99.90
55203;DHT22;41077;52.956;6.796;2022-12-29T09:11:11;10.70;99.90
55203;DHT22;41077;52.956;6.796;2022-12-29T09:13:37;10.70;99.90
55203;DHT22;41077;52.956;6.796;2022-12-29T09:16:03;10.70;99.90
55203;DHT22;41077;52.956;6.796;2022-12-29T09:18:29;10.70;99.90
55203;DHT22;41077;52.956;6.796;2022-12-29T09:20:59;10.60;99.90
55203;DHT22;41077;52.956;6.796;2022-12-29T09:23:25;10.60;99.90
55203;DHT22;41077;52.956;6.796;2022-12-29T09:25:53;10.60;99.90
55203;DHT22;41077;52.956;6.796;2022-12-29T09:28:20;10.50;99.90
55203;DHT22;41077;52.956;6.796;2022-12-29T09:30:46;10.40;99.90
55203;DHT22;41077;52.956;6.796;2022-12-29T09:33:12;10.40;99.90
55203;DHT22;41077;52.956;6.796;2022-12-29T09:35:45;10.30;99.90
55203;DHT22;41077;52.956;6.796;2022-12-29T09:38:11;10.20;99.90
55203;DHT22;41077;52.956;6.796;2022-12-29T09:40:38;10.30;99.90
55203;DHT22;41077;52.956;6.796;2022-12-29T09:48:41;10.30;99.90
55203;DHT22;41077;52.956;6.796;2022-12-29T09:51:11;10.20;99.90
55203;DHT22;41077;52.956;6.796;2022-12-29T09:53:52;10.30;99.90
55203;DHT22;41077;52.956;6.796;2022-12-29T09:56:23;10.30;99.90
55203;DHT22;41077;52.956;6.796;2022-12-29T09:59:13;10.40;99.90
55203;DHT22;41077;52.956;6.796;2022-12-29T10:04:17;10.20;99.90
55203;DHT22;41077;52.956;6.796;2022-12-29T10:07:07;10.10;99.90
55203;DHT22;41077;52.956;6.796;2022-12-29T10:10:03;10.20;99.90
55203;DHT22;41077;52.956;6.796;2022-12-29T10:23:48;9.60;99.90
55203;DHT22;41077;52.956;6.796;2022-12-29T10:26:18;9.70;99.90
55203;DHT22;41077;52.956;6.796;2022-12-29T10:29:18;9.60;99.90
55203;DHT22;41077;52.956;6.796;2022-12-29T10:32:04;9.60;99.90
55203;DHT22;41077;52.956;6.796;2022-12-29T10:34:41;9.50;99.90
55203;DHT22;41077;52.956;6.796;2022-12-29T10:39:52;9.40;99.90
55203;DHT22;41077;52.956;6.796;2022-12-29T10:42:28;9.30;99.90
55203;DHT22;41077;52.956;6.796;2022-12-29T10:44:55;9.30;99.90
55203;DHT22;41077;52.956;6.796;2022-12-29T10:47:25;9.30;99.90
55203;DHT22;41077;52.956;6.796;2022-12-29T10:49:52;9.40;99.90
55203;DHT22;41077;52.956;6.796;2022-12-29T10:52:19;9.40;99.90
55203;DHT22;41077;52.956;6.796;2022-12-29T10:54:53;9.40;99.90
55203;DHT22;41077;52.956;6.796;2022-12-29T10:57:38;9.50;99.90
55203;DHT22;41077;52.956;6.796;2022-12-29T11:05:30;9.50;99.90
55203;DHT22;41077;52.956;6.796;2022-12-29T11:08:03;9.50;99.90
55203;DHT22;41077;52.956;6.796;2022-12-29T11:10:34;9.50;99.90
55203;DHT22;41077;52.956;6.796;2022-12-29T11:13:25;9.40;99.90
55203;DHT22;41077;52.956;6.796;2022-12-29T11:15:51;9.40;99.90
55203;DHT22;41077;52.956;6.796;2022-12-29T11:18:32;9.40;99.90
55203;DHT22;41077;52.956;6.796;2022-12-29T11:21:03;9.50;99.90
55203;DHT22;41077;52.956;6.796;2022-12-29T11:28:36;9.50;99.90
55203;DHT22;41077;52.956;6.796;2022-12-29T11:31:05;9.50;99.90
55203;DHT22;41077;52.956;6.796;2022-12-29T11:33:32;9.50;99.90
55203;DHT22;41077;52.956;6.796;2022-12-29T11:38:55;9.70;99.90
55203;DHT22;41077;52.956;6.796;2022-12-29T11:41:30;9.60;99.90
55203;DHT22;41077;52.956;6.796;2022-12-29T11:43:59;9.70;99.90
55203;DHT22;41077;52.956;6.796;2022-12-29T11:46:27;9.70;99.90
55203;DHT22;41077;52.956;6.796;2022-12-29T11:48:53;9.70;99.90
55203;DHT22;41077;52.956;6.796;2022-12-29T11:51:38;9.70;99.90
55203;DHT22;41077;52.956;6.796;2022-12-29T11:54:05;9.80;99.90
55203;DHT22;41077;52.956;6.796;2022-12-29T11:56:40;9.70;99.90
55203;DHT22;41077;52.956;6.796;2022-12-29T11:59:51;9.70;99.90
55203;DHT22;41077;52.956;6.796;2022-12-29T12:04:53;9.70;99.90
55203;DHT22;41077;52.956;6.796;2022-12-29T12:07:37;9.70;99.90
55203;DHT22;41077;52.956;6.796;2022-12-29T12:10:04;9.70;99.90
55203;DHT22;41077;52.956;6.796;2022-12-29T12:16:04;9.70;99.90
55203;DHT22;41077;52.956;6.796;2022-12-29T12:18:14;9.70;99.90
55203;DHT22;41077;52.956;6.796;2022-12-29T12:20:54;9.80;99.90
55203;DHT22;41077;52.956;6.796;2022-12-29T12:23:36;9.90;99.90
55203;DHT22;41077;52.956;6.796;2022-12-29T12:26:21;10.00;99.90
55203;DHT22;41077;52.956;6.796;2022-12-29T12:29:01;10.00;99.90
55203;DHT22;41077;52.956;6.796;2022-12-29T12:34:29;10.20;99.90
55203;DHT22;41077;52.956;6.796;2022-12-29T12:42:29;10.40;99.90
55203;DHT22;41077;52.956;6.796;2022-12-29T12:48:11;10.50;99.90
55203;DHT22;41077;52.956;6.796;2022-12-29T12:59:29;10.40;99.90
55203;DHT22;41077;52.956;6.796;2022-12-29T13:02:34;10.30;99.90
55203;DHT22;41077;52.956;6.796;2022-12-29T13:10:49;10.20;99.90
55203;DHT22;41077;52.956;6.796;2022-12-29T13:16:41;10.20;99.90
55203;DHT22;41077;52.956;6.796;2022-12-29T13:19:08;10.20;99.90
55203;DHT22;41077;52.956;6.796;2022-12-29T13:24:26;10.40;99.90
55203;DHT22;41077;52.956;6.796;2022-12-29T13:27:16;10.40;99.90
55203;DHT22;41077;52.956;6.796;2022-12-29T13:30:00;10.40;99.90
55203;DHT22;41077;52.956;6.796;2022-12-29T13:38:07;10.50;99.90
55203;DHT22;41077;52.956;6.796;2022-12-29T13:40:38;10.50;99.90
55203;DHT22;41077;52.956;6.796;2022-12-29T13:43:05;10.50;99.90
55203;DHT22;41077;52.956;6.796;2022-12-29T13:45:32;10.40;99.90
55203;DHT22;41077;52.956;6.796;2022-12-29T13:48:10;10.40;99.90
55203;DHT22;41077;52.956;6.796;2022-12-29T13:50:48;10.30;99.90
55203;DHT22;41077;52.956;6.796;2022-12-29T13:53:36;10.30;99.90
55203;DHT22;41077;52.956;6.796;2022-12-29T13:59:12;10.20;99.90
55203;DHT22;41077;52.956;6.796;2022-12-29T14:01:58;10.30;99.90
55203;DHT22;41077;52.956;6.796;2022-12-29T14:04:29;10.30;99.90
55203;DHT22;41077;52.956;6.796;2022-12-29T14:09:52;10.20;99.90
55203;DHT22;41077;52.956;6.796;2022-12-29T14:17:37;10.10;99.90
55203;DHT22;41077;52.956;6.796;2022-12-29T14:20:04;10.20;99.90
55203;DHT22;41077;52.956;6.796;2022-12-29T14:22:33;10.10;99.90
55203;DHT22;41077;52.956;6.796;2022-12-29T14:24:59;10.10;99.90
55203;DHT22;41077;52.956;6.796;2022-12-29T14:29:54;9.90;99.90
55203;DHT22;41077;52.956;6.796;2022-12-29T14:34:56;10.00;99.90
55203;DHT22;41077;52.956;6.796;2022-12-29T14:37:31;10.00;99.90
55203;DHT22;41077;52.956;6.796;2022-12-29T14:40:21;9.90;99.90
55203;DHT22;41077;52.956;6.796;2022-12-29T14:42:50;9.90;99.90
55203;DHT22;41077;52.956;6.796;2022-12-29T14:47:44;10.00;99.90
55203;DHT22;41077;52.956;6.796;2022-12-29T14:52:50;9.80;99.90
55203;DHT22;41077;52.956;6.796;2022-12-29T14:57:52;9.80;99.90
55203;DHT22;41077;52.956;6.796;2022-12-29T15:00:26;9.80;99.90
55203;DHT22;41077;52.956;6.796;2022-12-29T15:05:56;9.70;99.90
55203;DHT22;41077;52.956;6.796;2022-12-29T15:08:26;9.60;99.90
55203;DHT22;41077;52.956;6.796;2022-12-29T15:11:01;9.50;99.90
55203;DHT22;41077;52.956;6.796;2022-12-29T15:13:36;9.70;99.90
55203;DHT22;41077;52.956;6.796;2022-12-29T15:16:03;9.60;99.90
55203;DHT22;41077;52.956;6.796;2022-12-29T15:18:32;9.50;99.90
55203;DHT22;41077;52.956;6.796;2022-12-29T15:21:03;9.50;99.90
55203;DHT22;41077;52.956;6.796;2022-12-29T15:23:31;9.50;99.90
55203;DHT22;41077;52.956;6.796;2022-12-29T15:26:07;9.50;99.90
55203;DHT22;41077;52.956;6.796;2022-12-29T15:28:42;9.40;99.90
55203;DHT22;41077;52.956;6.796;2022-12-29T15:31:22;9.30;99.90
55203;DHT22;41077;52.956;6.796;2022-12-29T15:33:53;9.30;99.90
55203;DHT22;41077;52.956;6.796;2022-12-29T15:36:23;9.30;99.90
55203;DHT22;41077;52.956;6.796;2022-12-29T15:38:50;9.30;99.90
55203;DHT22;41077;52.956;6.796;2022-12-29T15:44:06;9.40;99.90
55203;DHT22;41077;52.956;6.796;2022-12-29T15:46:35;9.30;99.90
55203;DHT22;41077;52.956;6.796;2022-12-29T15:49:05;9.40;99.90
55203;DHT22;41077;52.956;6.796;2022-12-29T15:51:36;9.40;99.90
55203;DHT22;41077;52.956;6.796;2022-12-29T15:54:02;9.40;99.90
55203;DHT22;41077;52.956;6.796;2022-12-29T15:56:29;9.40;99.90
55203;DHT22;41077;52.956;6.796;2022-12-29T15:58:55;9.30;99.90
55203;DHT22;41077;52.956;6.796;2022-12-29T16:01:33;9.30;99.90
55203;DHT22;41077;52.956;6.796;2022-12-29T16:04:04;9.30;99.90
55203;DHT22;41077;52.956;6.796;2022-12-29T16:06:43;9.30;99.90
55203;DHT22;41077;52.956;6.796;2022-12-29T16:09:18;9.30;99.90
55203;DHT22;41077;52.956;6.796;2022-12-29T16:11:53;9.40;99.90
55203;DHT22;41077;52.956;6.796;2022-12-29T16:14:33;9.30;99.90
55203;DHT22;41077;52.956;6.796;2022-12-29T16:17:03;9.30;99.90
55203;DHT22;41077;52.956;6.796;2022-12-29T16:19:34;9.30;99.90
55203;DHT22;41077;52.956;6.796;2022-12-29T16:22:03;9.40;99.90
55203;DHT22;41077;52.956;6.796;2022-12-29T16:24:32;9.50;99.90
55203;DHT22;41077;52.956;6.796;2022-12-29T16:27:06;9.50;99.90
55203;DHT22;41077;52.956;6.796;2022-12-29T16:29:33;9.50;99.90
55203;DHT22;41077;52.956;6.796;2022-12-29T16:32:00;9.40;99.90
55203;DHT22;41077;52.956;6.796;2022-12-29T16:41:54;9.30;99.90
55203;DHT22;41077;52.956;6.796;2022-12-29T16:49:37;9.30;99.90
55203;DHT22;41077;52.956;6.796;2022-12-29T16:52:17;9.30;99.90
55203;DHT22;41077;52.956;6.796;2022-12-29T16:54:50;9.20;99.90
55203;DHT22;41077;52.956;6.796;2022-12-29T16:57:24;9.20;99.90
55203;DHT22;41077;52.956;6.796;2022-12-29T16:59:53;8.90;99.90
55203;DHT22;41077;52.956;6.796;2022-12-29T17:02:22;8.70;99.90
55203;DHT22;41077;52.956;6.796;2022-12-29T17:04:49;8.40;99.90
55203;DHT22;41077;52.956;6.796;2022-12-29T17:07:20;8.20;99.90
55203;DHT22;41077;52.956;6.796;2022-12-29T17:09:46;8.10;99.90
55203;DHT22;41077;52.956;6.796;2022-12-29T17:12:28;7.90;99.90
55203;DHT22;41077;52.956;6.796;2022-12-29T17:14:59;7.70;99.90
55203;DHT22;41077;52.956;6.796;2022-12-29T17:17:35;7.70;99.90
55203;DHT22;41077;52.956;6.796;2022-12-29T17:22:46;7.50;99.90
55203;DHT22;41077;52.956;6.796;2022-12-29T17:25:14;7.60;99.90
55203;DHT22;41077;52.956;6.796;2022-12-29T17:27:46;7.50;99.90
55203;DHT22;41077;52.956;6.796;2022-12-29T17:30:15;7.60;99.90
55203;DHT22;41077;52.956;6.796;2022-12-29T17:32:42;7.50;99.90
55203;DHT22;41077;52.956;6.796;2022-12-29T17:35:16;7.50;99.90
55203;DHT22;41077;52.956;6.796;2022-12-29T17:37:42;7.50;99.90
55203;DHT22;41077;52.956;6.796;2022-12-29T17:40:16;7.40;99.90
55203;DHT22;41077;52.956;6.796;2022-12-29T17:42:47;7.40;99.90
55203;DHT22;41077;52.956;6.796;2022-12-29T17:45:15;7.30;99.90
55203;DHT22;41077;52.956;6.796;2022-12-29T17:47:42;7.30;99.90
55203;DHT22;41077;52.956;6.796;2022-12-29T17:50:13;7.30;99.90
55203;DHT22;41077;52.956;6.796;2022-12-29T17:52:39;7.30;99.90
55203;DHT22;41077;52.956;6.796;2022-12-29T17:55:06;7.40;99.90
55203;DHT22;41077;52.956;6.796;2022-12-29T17:57:31;7.40;99.90
55203;DHT22;41077;52.956;6.796;2022-12-29T17:59:57;7.40;99.90
55203;DHT22;41077;52.956;6.796;2022-12-29T18:02:27;7.40;99.90
55203;DHT22;41077;52.956;6.796;2022-12-29T18:04:55;7.50;99.90
55203;DHT22;41077;52.956;6.796;2022-12-29T18:07:22;7.60;99.90
55203;DHT22;41077;52.956;6.796;2022-12-29T18:09:48;7.60;99.90
55203;DHT22;41077;52.956;6.796;2022-12-29T18:12:39;7.70;99.90
55203;DHT22;41077;52.956;6.796;2022-12-29T18:15:09;7.80;99.90
55203;DHT22;41077;52.956;6.796;2022-12-29T18:17:40;7.80;99.90
55203;DHT22;41077;52.956;6.796;2022-12-29T18:20:06;7.90;99.90
55203;DHT22;41077;52.956;6.796;2022-12-29T18:22:32;7.90;99.90
55203;DHT22;41077;52.956;6.796;2022-12-29T18:24:57;8.00;99.90
55203;DHT22;41077;52.956;6.796;2022-12-29T18:27:24;8.00;99.90
55203;DHT22;41077;52.956;6.796;2022-12-29T18:29:50;8.10;99.90
55203;DHT22;41077;52.956;6.796;2022-12-29T18:32:16;8.20;99.90
55203;DHT22;41077;52.956;6.796;2022-12-29T18:34:42;8.20;99.90